createdAt,value
2019-03-05T00:00:36.567Z,90.50
2019-03-05T00:03:05.017Z,90.60
2019-03-05T00:05:33.387Z,90.60
2019-03-05T00:08:01.755Z,90.60
2019-03-05T00:10:30.234Z,90.50
2019-03-05T00:12:58.697Z,90.30
2019-03-05T00:15:28.831Z,90.20
2019-03-05T00:17:57.270Z,90.10
2019-03-05T00:20:25.644Z,90.00
2019-03-05T00:22:54.049Z,90.00
2019-03-05T00:25:25.062Z,90.00
2019-03-05T00:28:17.642Z,89.80
2019-03-05T00:30:49.337Z,89.00
2019-03-05T00:33:23.743Z,88.90
2019-03-05T00:36:04.330Z,88.10
2019-03-05T00:38:44.736Z,87.70
2019-03-05T00:41:28.915Z,88.00
2019-03-05T00:44:32.126Z,88.50
2019-03-05T00:47:21.889Z,87.70
2019-03-05T00:49:59.304Z,86.70
2019-03-05T00:52:33.701Z,87.30
2019-03-05T00:55:21.614Z,87.10
2019-03-05T00:58:16.006Z,87.30
2019-03-05T01:00:47.641Z,87.20
2019-03-05T01:03:38.756Z,87.40
2019-03-05T01:06:21.922Z,86.90
2019-03-05T01:08:50.595Z,87.10
2019-03-05T01:11:19.694Z,87.10
2019-03-05T01:13:48.120Z,87.40
2019-03-05T01:16:19.235Z,87.70
2019-03-05T01:18:47.618Z,87.10
2019-03-05T01:21:16.455Z,87.20
2019-03-05T01:23:44.850Z,86.90
2019-03-05T01:26:13.222Z,87.00
2019-03-05T01:28:41.782Z,87.00
2019-03-05T01:31:17.341Z,86.90
2019-03-05T01:33:50.228Z,87.20
2019-03-05T01:36:34.660Z,87.40
2019-03-05T01:39:13.745Z,87.50
2019-03-05T01:41:42.448Z,87.80
2019-03-05T01:44:10.839Z,87.80
2019-03-05T01:46:39.220Z,88.20
2019-03-05T01:49:07.774Z,88.60
2019-03-05T01:51:36.178Z,89.00
2019-03-05T01:54:04.578Z,89.10
2019-03-05T01:56:32.990Z,89.20
2019-03-05T01:59:01.398Z,89.40
2019-03-05T02:01:29.806Z,89.50
2019-03-05T02:03:58.246Z,89.50
2019-03-05T02:06:26.638Z,89.60
2019-03-05T02:08:54.997Z,89.90
2019-03-05T02:11:23.460Z,90.20
2019-03-05T02:13:51.885Z,90.20
2019-03-05T02:16:20.948Z,90.50
2019-03-05T02:18:49.351Z,90.60
2019-03-05T02:21:17.758Z,90.60
2019-03-05T02:24:06.246Z,90.90
2019-03-05T02:26:55.923Z,90.80
2019-03-05T02:29:45.951Z,90.80
2019-03-05T02:32:38.563Z,90.80
2019-03-05T02:35:25.179Z,91.00
2019-03-05T02:38:05.451Z,91.20
2019-03-05T02:40:41.562Z,91.50
2019-03-05T02:43:31.702Z,91.70
2019-03-05T02:46:06.100Z,91.80
2019-03-05T02:48:55.817Z,91.70
2019-03-05T02:51:27.528Z,91.70
2019-03-05T02:54:08.072Z,92.70
2019-03-05T02:56:57.800Z,93.50
2019-03-05T02:59:26.174Z,93.20
2019-03-05T03:01:59.196Z,93.20
2019-03-05T03:04:32.131Z,93.60
2019-03-05T03:07:00.470Z,93.40
2019-03-05T03:09:32.149Z,93.30
2019-03-05T03:12:00.580Z,93.00
2019-03-05T03:14:28.989Z,93.20
2019-03-05T03:16:57.390Z,93.10
2019-03-05T03:19:25.827Z,92.80
2019-03-05T03:21:54.226Z,92.90
2019-03-05T03:24:22.676Z,93.20
2019-03-05T03:26:51.055Z,92.90
2019-03-05T03:29:19.469Z,93.00
2019-03-05T03:31:47.861Z,93.10
2019-03-05T03:34:16.258Z,93.00
2019-03-05T03:36:44.670Z,93.10
2019-03-05T03:39:13.045Z,93.20
2019-03-05T03:41:41.496Z,93.10
2019-03-05T03:44:10.402Z,93.00
2019-03-05T03:46:38.773Z,93.00
2019-03-05T03:49:07.209Z,93.10
2019-03-05T03:51:35.586Z,93.00
2019-03-05T03:54:03.962Z,93.10
2019-03-05T03:56:32.403Z,93.30
2019-03-05T03:59:00.811Z,93.60
2019-03-05T04:01:29.312Z,93.60
2019-03-05T04:03:57.743Z,93.50
2019-03-05T04:06:26.115Z,93.40
2019-03-05T04:08:54.523Z,93.20
2019-03-05T04:11:22.959Z,93.20
2019-03-05T04:13:51.334Z,93.20
2019-03-05T04:16:19.742Z,93.30
2019-03-05T04:18:48.207Z,93.30
2019-03-05T04:21:19.863Z,93.30
2019-03-05T04:23:46.728Z,93.50
2019-03-05T04:26:15.127Z,93.20
2019-03-05T04:28:43.538Z,93.30
2019-03-05T04:31:12.249Z,93.10
2019-03-05T04:33:40.663Z,93.20
2019-03-05T04:36:09.054Z,93.30
2019-03-05T04:38:37.458Z,93.60
2019-03-05T04:41:05.894Z,93.50
2019-03-05T04:43:34.298Z,93.40
2019-03-05T04:46:04.313Z,93.50
2019-03-05T04:48:32.734Z,93.50
2019-03-05T04:51:05.678Z,93.40
2019-03-05T04:53:34.080Z,93.50
2019-03-05T04:56:02.769Z,93.80
2019-03-05T04:58:31.101Z,93.90
2019-03-05T05:00:59.507Z,94.30
2019-03-05T05:03:32.774Z,94.10
2019-03-05T05:06:01.163Z,94.00
2019-03-05T05:08:29.558Z,94.60
2019-03-05T05:10:58.071Z,94.90
2019-03-05T05:13:26.450Z,95.70
2019-03-05T05:15:54.985Z,96.00
2019-03-05T05:18:23.445Z,95.80
2019-03-05T05:20:51.815Z,95.70
2019-03-05T05:23:20.303Z,95.90
2019-03-05T05:25:48.721Z,96.00
2019-03-05T05:28:17.138Z,96.20
2019-03-05T05:30:45.623Z,96.00
2019-03-05T05:33:14.102Z,95.90
2019-03-05T05:35:42.474Z,95.80
2019-03-05T05:38:10.977Z,96.00
2019-03-05T05:40:41.411Z,95.60
2019-03-05T05:43:12.801Z,95.70
2019-03-05T05:45:48.521Z,95.40
2019-03-05T05:48:16.927Z,95.10
2019-03-05T05:50:45.358Z,95.40
2019-03-05T05:53:13.798Z,95.20
2019-03-05T05:55:42.233Z,95.10
2019-03-05T05:58:10.656Z,94.50
2019-03-05T06:00:44.208Z,94.50
2019-03-05T06:03:12.650Z,94.90
2019-03-05T06:05:41.052Z,94.50
2019-03-05T06:08:09.499Z,94.30
2019-03-05T06:10:37.888Z,94.30
2019-03-05T06:13:06.289Z,94.00
2019-03-05T06:15:34.706Z,93.70
2019-03-05T06:18:03.212Z,93.80
2019-03-05T06:20:31.847Z,94.20
2019-03-05T06:23:00.254Z,93.90
2019-03-05T06:25:28.668Z,93.40
2019-03-05T06:27:57.040Z,93.30
2019-03-05T06:30:27.926Z,93.20
2019-03-05T06:32:56.345Z,92.90
2019-03-05T06:35:24.750Z,93.00
2019-03-05T06:37:53.236Z,92.90
2019-03-05T06:40:27.150Z,92.90
2019-03-05T06:42:55.519Z,92.70
2019-03-05T06:45:23.974Z,92.50
2019-03-05T06:47:52.476Z,92.70
2019-03-05T06:50:22.488Z,92.60
2019-03-05T06:52:51.107Z,92.70
2019-03-05T06:55:19.611Z,92.30
2019-03-05T06:57:48.099Z,92.20
2019-03-05T07:00:29.663Z,92.00
2019-03-05T07:02:58.045Z,92.60
2019-03-05T07:06:03.203Z,92.30
2019-03-05T07:08:31.686Z,92.40
2019-03-05T07:11:12.252Z,92.20
2019-03-05T07:13:40.639Z,92.30
2019-03-05T07:16:27.410Z,92.10
2019-03-05T07:18:57.957Z,92.40
2019-03-05T07:21:49.316Z,92.50
2019-03-05T07:24:23.646Z,92.70
2019-03-05T07:26:52.022Z,92.90
2019-03-05T07:29:20.498Z,93.20
2019-03-05T07:31:49.058Z,93.20
2019-03-05T07:34:19.131Z,93.40
2019-03-05T07:36:47.534Z,93.70
2019-03-05T07:39:22.182Z,93.60
2019-03-05T07:41:50.554Z,93.60
2019-03-05T07:44:19.001Z,93.50
2019-03-05T07:46:47.415Z,93.80
2019-03-05T07:49:16.090Z,94.00
2019-03-05T07:51:44.499Z,94.10
2019-03-05T07:54:12.967Z,94.60
2019-03-05T07:56:41.476Z,94.10
2019-03-05T07:59:09.906Z,94.20
2019-03-05T08:01:38.502Z,94.70
2019-03-05T08:04:06.836Z,94.90
2019-03-05T08:06:35.327Z,94.60
2019-03-05T08:09:23.790Z,94.80
2019-03-05T08:11:55.178Z,95.30
2019-03-05T08:14:52.649Z,95.20
2019-03-05T08:17:21.658Z,94.90
2019-03-05T08:19:50.451Z,95.40
2019-03-05T08:22:18.794Z,95.70
2019-03-05T08:24:47.251Z,96.10
2019-03-05T08:27:15.653Z,95.40
2019-03-05T08:29:44.112Z,95.30
2019-03-05T08:32:12.536Z,95.20
2019-03-05T08:34:40.965Z,95.10
2019-03-05T08:37:09.407Z,94.90
2019-03-05T08:39:37.895Z,95.00
2019-03-05T08:42:06.257Z,94.90
2019-03-05T08:44:34.674Z,94.70
2019-03-05T08:47:03.106Z,94.90
2019-03-05T08:49:31.482Z,94.70
2019-03-05T08:52:00.100Z,94.60
2019-03-05T08:54:28.519Z,94.80
2019-03-05T08:56:56.929Z,94.80
2019-03-05T08:59:25.544Z,94.20
2019-03-05T09:01:53.909Z,94.60
2019-03-05T09:04:22.323Z,95.00
2019-03-05T09:06:50.726Z,95.00
2019-03-05T09:09:19.178Z,94.90
2019-03-05T09:11:47.592Z,95.30
2019-03-05T09:14:16.119Z,95.00
2019-03-05T09:16:44.619Z,95.30
2019-03-05T09:19:13.234Z,94.80
2019-03-05T09:21:41.624Z,94.90
2019-03-05T09:24:10.122Z,95.20
2019-03-05T09:26:38.548Z,95.70
2019-03-05T09:29:06.959Z,95.20
2019-03-05T09:31:35.593Z,95.20
2019-03-05T09:34:04.025Z,95.80
2019-03-05T09:36:32.558Z,96.40
2019-03-05T09:39:03.198Z,96.60
2019-03-05T09:41:31.789Z,97.40
2019-03-05T09:44:00.171Z,98.20
2019-03-05T09:46:28.814Z,97.00
2019-03-05T09:48:57.218Z,97.80
2019-03-05T09:51:25.903Z,98.20
2019-03-05T09:53:54.351Z,98.10
2019-03-05T09:56:22.834Z,98.60
2019-03-05T09:58:51.262Z,98.10
2019-03-05T10:01:19.701Z,98.90
2019-03-05T10:03:48.102Z,99.90
2019-03-05T10:06:16.502Z,99.90
2019-03-05T10:08:44.954Z,99.90
2019-03-05T10:11:13.500Z,99.90
2019-03-05T10:13:41.859Z,99.90
2019-03-05T10:16:10.277Z,99.90
2019-03-05T10:18:39.396Z,99.90
2019-03-05T10:21:07.944Z,99.90
2019-03-05T10:23:36.359Z,99.90
2019-03-05T10:26:04.844Z,99.90
2019-03-05T10:28:33.774Z,99.90
2019-03-05T10:31:02.249Z,99.90
2019-03-05T10:33:30.804Z,99.90
2019-03-05T10:35:59.275Z,99.90
2019-03-05T10:38:27.765Z,99.90
2019-03-05T10:40:59.182Z,99.90
2019-03-05T10:43:27.599Z,99.90
2019-03-05T10:45:56.034Z,99.90
2019-03-05T10:48:25.101Z,99.90
2019-03-05T10:50:53.470Z,99.90
2019-03-05T10:53:22.526Z,99.90
2019-03-05T10:55:51.483Z,99.90
2019-03-05T10:58:19.900Z,99.90
2019-03-05T11:00:53.750Z,99.90
2019-03-05T11:03:23.902Z,99.90
2019-03-05T11:05:52.686Z,99.20
2019-03-05T11:08:24.179Z,99.60
2019-03-05T11:10:53.477Z,99.80
2019-03-05T11:13:21.883Z,99.70
2019-03-05T11:15:53.674Z,99.20
2019-03-05T11:18:29.343Z,99.60
2019-03-05T11:20:52.093Z,99.50
2019-03-05T11:23:20.482Z,99.40
2019-03-05T11:25:49.002Z,98.60
2019-03-05T11:28:17.554Z,99.40
2019-03-05T11:30:45.951Z,98.80
2019-03-05T11:33:14.409Z,99.70
2019-03-05T11:35:42.955Z,99.20
2019-03-05T11:38:11.296Z,98.70
2019-03-05T11:40:39.879Z,99.00
2019-03-05T11:43:13.976Z,99.20
2019-03-05T11:45:43.207Z,99.00
2019-03-05T11:48:11.982Z,99.20
2019-03-05T11:50:40.520Z,98.90
2019-03-05T11:53:09.221Z,99.30
2019-03-05T11:55:37.645Z,99.40
2019-03-05T11:58:06.056Z,99.20
2019-03-05T12:00:53.169Z,99.30
2019-03-05T12:03:21.537Z,99.30
2019-03-05T12:05:50.038Z,99.20
2019-03-05T12:08:18.465Z,99.30
2019-03-05T12:10:46.907Z,99.60
2019-03-05T12:13:15.344Z,99.40
2019-03-05T12:15:45.584Z,99.60
2019-03-05T12:18:14.007Z,99.90
2019-03-05T12:20:42.436Z,99.90
2019-03-05T12:23:11.915Z,99.50
2019-03-05T12:25:41.218Z,99.60
2019-03-05T12:28:11.007Z,99.70
2019-03-05T12:30:40.135Z,99.50
2019-03-05T12:33:08.609Z,99.50
2019-03-05T12:35:37.026Z,99.70
2019-03-05T12:38:05.845Z,99.50
2019-03-05T12:40:34.243Z,99.40
2019-03-05T12:43:02.768Z,97.90
2019-03-05T12:45:31.163Z,97.50
2019-03-05T12:47:59.916Z,97.90
2019-03-05T12:50:30.230Z,98.70
2019-03-05T12:52:58.719Z,98.70
2019-03-05T12:55:27.206Z,97.90
2019-03-05T12:57:56.636Z,97.90
2019-03-05T13:00:31.174Z,98.00
2019-03-05T13:03:00.692Z,98.30
2019-03-05T13:05:29.160Z,97.20
2019-03-05T13:07:57.803Z,97.80
2019-03-05T13:10:37.296Z,97.60
2019-03-05T13:13:05.237Z,97.30
2019-03-05T13:15:38.995Z,97.50
2019-03-05T13:18:07.358Z,97.20
2019-03-05T13:20:35.757Z,97.00
2019-03-05T13:23:08.670Z,97.00
2019-03-05T13:25:34.337Z,96.90
2019-03-05T13:28:04.229Z,97.10
2019-03-05T13:30:33.378Z,97.10
2019-03-05T13:33:01.979Z,96.30
2019-03-05T13:35:32.032Z,96.20
2019-03-05T13:38:09.799Z,96.40
2019-03-05T13:40:40.457Z,96.70
2019-03-05T13:43:08.566Z,96.10
2019-03-05T13:45:37.005Z,96.70
2019-03-05T13:48:23.567Z,95.50
2019-03-05T13:51:09.404Z,96.20
2019-03-05T13:54:00.529Z,96.70
2019-03-05T13:56:47.738Z,96.40
2019-03-05T13:59:25.295Z,95.70
2019-03-05T14:01:53.711Z,96.10
2019-03-05T14:04:50.861Z,95.60
2019-03-05T14:07:49.943Z,95.10
2019-03-05T14:10:18.328Z,95.60
2019-03-05T14:12:46.737Z,95.50
2019-03-05T14:15:15.648Z,95.10
2019-03-05T14:17:44.097Z,95.70
2019-03-05T14:20:17.197Z,94.10
2019-03-05T14:22:45.791Z,95.00
2019-03-05T14:25:16.397Z,94.90
2019-03-05T14:27:44.817Z,94.30
2019-03-05T14:30:21.212Z,95.50
2019-03-05T14:32:50.136Z,95.00
2019-03-05T14:35:19.825Z,94.10
2019-03-05T14:37:48.201Z,94.30
2019-03-05T14:40:24.574Z,93.70
2019-03-05T14:42:52.489Z,94.80
2019-03-05T14:45:27.237Z,94.70
2019-03-05T14:47:57.622Z,94.20
2019-03-05T14:50:26.049Z,95.00
2019-03-05T14:52:54.734Z,93.70
2019-03-05T14:55:23.173Z,93.70
2019-03-05T14:57:52.839Z,93.60
2019-03-05T15:00:22.375Z,92.80
2019-03-05T15:02:51.285Z,93.40
2019-03-05T15:05:19.705Z,93.10
2019-03-05T15:07:48.249Z,93.10
2019-03-05T15:10:16.699Z,92.70
2019-03-05T15:12:45.319Z,94.00
2019-03-05T15:15:22.155Z,93.40
2019-03-05T15:17:50.646Z,93.30
2019-03-05T15:20:19.018Z,92.80
2019-03-05T15:22:47.430Z,92.50
2019-03-05T15:25:16.760Z,92.80
2019-03-05T15:27:45.127Z,92.40
2019-03-05T15:30:19.515Z,92.10
2019-03-05T15:32:47.963Z,93.20
2019-03-05T15:35:16.362Z,93.00
2019-03-05T15:37:44.839Z,92.30
2019-03-05T15:40:18.108Z,94.60
2019-03-05T15:42:46.715Z,93.20
2019-03-05T15:45:22.916Z,92.80
2019-03-05T15:47:51.343Z,93.20
2019-03-05T15:50:22.972Z,92.60
2019-03-05T15:52:51.403Z,92.60
2019-03-05T15:55:19.774Z,92.70
2019-03-05T15:57:48.199Z,93.50
2019-03-05T16:00:19.624Z,93.20
2019-03-05T16:02:48.103Z,93.20
2019-03-05T16:05:20.338Z,92.70
2019-03-05T16:07:48.060Z,93.00
2019-03-05T16:10:18.702Z,92.20
2019-03-05T16:12:47.524Z,91.40
2019-03-05T16:15:18.657Z,92.20
2019-03-05T16:17:46.604Z,92.80
2019-03-05T16:20:16.378Z,93.30
2019-03-05T16:22:44.800Z,92.20
2019-03-05T16:25:18.451Z,93.30
2019-03-05T16:27:46.873Z,92.90
2019-03-05T16:30:38.950Z,92.70
2019-03-05T16:33:14.918Z,92.20
2019-03-05T16:35:44.973Z,92.30
2019-03-05T16:38:24.376Z,91.70
2019-03-05T16:40:54.434Z,92.70
2019-03-05T16:43:24.474Z,92.00
2019-03-05T16:46:06.770Z,92.60
2019-03-05T16:48:42.380Z,91.80
2019-03-05T16:51:12.417Z,91.40
2019-03-05T16:53:45.267Z,92.40
2019-03-05T16:56:32.178Z,91.90
2019-03-05T16:59:17.239Z,92.00
2019-03-05T17:02:02.360Z,92.50
2019-03-05T17:04:38.393Z,90.60
2019-03-05T17:07:17.138Z,90.30
2019-03-05T17:09:47.204Z,92.10
2019-03-05T17:12:15.677Z,91.40
2019-03-05T17:14:44.086Z,91.10
2019-03-05T17:17:12.555Z,91.60
2019-03-05T17:19:40.986Z,91.10
2019-03-05T17:22:09.389Z,90.80
2019-03-05T17:24:37.795Z,89.50
2019-03-05T17:27:06.238Z,90.50
2019-03-05T17:29:34.601Z,90.70
2019-03-05T17:32:03.110Z,90.20
2019-03-05T17:34:31.641Z,90.60
2019-03-05T17:37:00.157Z,91.10
2019-03-05T17:39:28.742Z,90.90
2019-03-05T17:41:57.345Z,90.70
2019-03-05T17:44:25.972Z,91.90
2019-03-05T17:46:54.374Z,91.60
2019-03-05T17:49:22.805Z,90.50
2019-03-05T17:51:51.278Z,90.60
2019-03-05T17:54:19.691Z,91.00
2019-03-05T17:56:48.203Z,90.30
2019-03-05T17:59:16.610Z,90.80
2019-03-05T18:01:46.772Z,90.70
2019-03-05T18:04:15.145Z,90.70
2019-03-05T18:06:43.543Z,90.30
2019-03-05T18:09:12.122Z,90.40
2019-03-05T18:11:41.868Z,89.90
2019-03-05T18:14:10.494Z,90.00
2019-03-05T18:16:38.897Z,90.50
2019-03-05T18:19:07.482Z,90.10
2019-03-05T18:21:35.951Z,90.50
2019-03-05T18:24:04.356Z,89.40
2019-03-05T18:26:32.794Z,89.20
2019-03-05T18:29:01.219Z,90.40
2019-03-05T18:31:29.675Z,90.50
2019-03-05T18:33:58.097Z,89.80
2019-03-05T18:36:26.744Z,90.00
2019-03-05T18:38:55.130Z,89.00
2019-03-05T18:41:23.667Z,90.50
2019-03-05T18:43:52.072Z,90.00
2019-03-05T18:46:20.521Z,90.90
2019-03-05T18:48:48.927Z,90.40
2019-03-05T18:51:17.387Z,91.10
2019-03-05T18:53:45.802Z,90.30
2019-03-05T18:56:14.182Z,90.60
2019-03-05T18:58:42.846Z,90.30
2019-03-05T19:01:11.213Z,90.70
2019-03-05T19:03:39.619Z,90.30
2019-03-05T19:06:08.051Z,88.40
2019-03-05T19:08:36.509Z,90.40
2019-03-05T19:11:05.044Z,90.30
2019-03-05T19:13:33.594Z,89.20
2019-03-05T19:16:02.164Z,89.40
2019-03-05T19:18:30.569Z,90.20
2019-03-05T19:20:58.962Z,89.80
2019-03-05T19:23:27.341Z,89.70
2019-03-05T19:25:56.128Z,89.50
2019-03-05T19:28:24.510Z,89.70
2019-03-05T19:30:53.051Z,88.10
2019-03-05T19:33:21.468Z,86.60
2019-03-05T19:35:50.040Z,85.90
2019-03-05T19:38:18.604Z,85.20
2019-03-05T19:40:48.646Z,85.90
2019-03-05T19:43:17.059Z,86.50
2019-03-05T19:45:45.531Z,84.70
2019-03-05T19:48:14.057Z,85.10
2019-03-05T19:50:43.050Z,83.80
2019-03-05T19:53:11.469Z,83.90
2019-03-05T19:55:39.950Z,81.20
2019-03-05T19:58:09.678Z,83.90
2019-03-05T20:00:43.107Z,84.40
2019-03-05T20:03:11.550Z,83.20
2019-03-05T20:05:40.204Z,83.50
2019-03-05T20:08:08.740Z,82.30
2019-03-05T20:10:38.614Z,83.00
2019-03-05T20:13:06.990Z,82.40
2019-03-05T20:15:35.483Z,83.00
2019-03-05T20:18:04.097Z,82.30
2019-03-05T20:20:32.555Z,82.00
2019-03-05T20:23:01.056Z,80.70
2019-03-05T20:25:32.277Z,83.00
2019-03-05T20:28:00.738Z,81.20
2019-03-05T20:30:29.175Z,81.50
2019-03-05T20:32:57.631Z,78.90
2019-03-05T20:35:26.078Z,76.70
2019-03-05T20:37:54.465Z,78.00
2019-03-05T20:40:28.791Z,76.20
2019-03-05T20:42:57.537Z,76.20
2019-03-05T20:45:31.289Z,77.10
2019-03-05T20:47:59.725Z,76.80
2019-03-05T20:50:28.128Z,76.40
2019-03-05T20:52:56.618Z,75.30
2019-03-05T20:55:26.675Z,75.80
2019-03-05T20:57:55.295Z,75.00
2019-03-05T21:00:28.423Z,74.50
2019-03-05T21:03:02.628Z,75.30
2019-03-05T21:05:33.416Z,75.50
2019-03-05T21:08:01.828Z,75.40
2019-03-05T21:10:30.199Z,76.10
2019-03-05T21:12:58.612Z,73.00
2019-03-05T21:15:27.830Z,74.20
2019-03-05T21:17:56.461Z,73.10
2019-03-05T21:20:24.827Z,72.00
2019-03-05T21:22:53.258Z,72.40
2019-03-05T21:25:21.671Z,72.60
2019-03-05T21:27:50.041Z,72.00
2019-03-05T21:30:26.065Z,73.50
2019-03-05T21:32:54.518Z,71.80
2019-03-05T21:35:22.956Z,71.30
2019-03-05T21:37:51.766Z,74.00
2019-03-05T21:40:28.189Z,73.50
2019-03-05T21:42:56.605Z,72.20
2019-03-05T21:45:36.658Z,72.00
2019-03-05T21:48:06.027Z,70.70
2019-03-05T21:50:34.400Z,72.30
2019-03-05T21:53:02.852Z,72.60
2019-03-05T21:55:31.264Z,73.60
2019-03-05T21:57:59.663Z,73.90
2019-03-05T22:00:33.663Z,72.80
2019-03-05T22:03:02.639Z,73.00
2019-03-05T22:05:31.085Z,74.00
2019-03-05T22:07:59.497Z,73.30
2019-03-05T22:10:27.919Z,73.10
2019-03-05T22:12:56.447Z,73.20
2019-03-05T22:15:26.957Z,73.00
2019-03-05T22:17:55.405Z,73.40
2019-03-05T22:20:23.989Z,74.10
2019-03-05T22:22:52.395Z,74.60
2019-03-05T22:25:22.976Z,75.90
2019-03-05T22:27:51.447Z,74.90
2019-03-05T22:30:31.311Z,73.00
2019-03-05T22:32:59.867Z,72.80
2019-03-05T22:35:28.273Z,73.70
2019-03-05T22:37:56.718Z,73.50
2019-03-05T22:40:26.639Z,74.30
2019-03-05T22:42:54.959Z,73.30
2019-03-05T22:45:29.396Z,73.40
2019-03-05T22:47:57.951Z,73.30
2019-03-05T22:50:26.320Z,74.20
2019-03-05T22:52:54.843Z,73.70
2019-03-05T22:55:23.423Z,74.40
2019-03-05T22:57:51.822Z,74.00
2019-03-05T23:00:37.067Z,73.20
2019-03-05T23:03:07.709Z,73.00
2019-03-05T23:05:36.106Z,71.00
2019-03-05T23:08:04.814Z,72.80
2019-03-05T23:10:33.194Z,74.00
2019-03-05T23:13:01.674Z,74.10
2019-03-05T23:15:30.159Z,74.20
2019-03-05T23:17:58.578Z,70.60
2019-03-05T23:20:27.356Z,70.10
2019-03-05T23:22:55.793Z,71.40
2019-03-05T23:25:24.185Z,70.00
2019-03-05T23:27:52.563Z,69.90
2019-03-05T23:30:21.831Z,69.40
2019-03-05T23:32:53.738Z,68.20
2019-03-05T23:35:22.226Z,67.90
2019-03-05T23:37:52.940Z,68.70
2019-03-05T23:40:21.045Z,69.30
2019-03-05T23:42:49.451Z,70.80
2019-03-05T23:45:18.910Z,68.00
2019-03-05T23:47:47.509Z,69.70
2019-03-05T23:50:17.135Z,71.10
2019-03-05T23:52:45.590Z,71.80
2019-03-05T23:55:14.430Z,69.30
2019-03-05T23:57:43.109Z,69.20
